Time;durP1;ratioP1;P1;durP2;ratioP2;P2;SDS_P1;SDS_P2;PMS_P1;PMS_P2;Temp;Humidity;BMP_temperature;BMP_pressure;BME280_temperature;BME280_humidity;BME280_pressure;Samples;Min_cycle;Max_cycle;Signal;HPM_P1;HPM_P2
2022/12/07 00:01:25;;;;;;;43.37;29.97;;;;;;;4.57;100.00;92775.28;5097642;28;20227;-74
2022/12/07 00:03:54;;;;;;;52.80;28.47;;;;;;;4.79;100.00;92781.22;5101130;28;20206;-74
2022/12/07 00:06:20;;;;;;;45.53;28.77;;;;;;;4.70;100.00;92780.09;5108786;28;20209;-74
2022/12/07 00:08:47;;;;;;;44.87;28.27;;;;;;;4.64;100.00;92778.47;5101540;28;20219;-74
2022/12/07 00:11:19;;;;;;;56.87;29.73;;;;;;;4.54;100.00;92782.72;5107782;28;20227;-74
2022/12/07 00:13:45;;;;;;;41.67;27.83;;;;;;;4.58;100.00;92779.41;5100971;28;20185;-74
2022/12/07 00:16:16;;;;;;;46.00;29.63;;;;;;;4.50;100.00;92772.06;5095605;28;20216;-70
2022/12/07 00:18:42;;;;;;;42.97;28.13;;;;;;;4.63;100.00;92770.94;5110881;28;20244;-69
2022/12/07 00:21:14;;;;;;;45.47;28.47;;;;;;;4.59;100.00;92760.28;5093358;28;20212;-70
2022/12/07 00:23:41;;;;;;;49.00;30.37;;;;;;;4.59;100.00;92765.47;5103252;28;20246;-70
2022/12/07 00:26:14;;;;;;;50.13;32.53;;;;;;;4.56;100.00;92765.94;5091941;28;20220;-69
2022/12/07 00:28:40;;;;;;;49.87;31.37;;;;;;;4.70;100.00;92769.75;5092300;28;20267;-70
2022/12/07 00:31:10;;;;;;;59.60;31.80;;;;;;;4.72;100.00;92765.13;5110772;28;20231;-70
2022/12/07 00:33:38;;;;;;;58.77;33.23;;;;;;;4.15;100.00;92750.88;5109941;28;20196;-70
2022/12/07 00:36:06;;;;;;;70.33;40.03;;;;;;;4.17;100.00;92766.91;5110470;28;20224;-70
2022/12/07 00:38:33;;;;;;;84.40;49.67;;;;;;;4.52;100.00;92758.91;5111341;28;20199;-69
2022/12/07 00:41:02;;;;;;;59.83;34.37;;;;;;;4.46;100.00;92765.81;5092745;28;20235;-70
2022/12/07 00:43:28;;;;;;;72.03;37.97;;;;;;;4.42;100.00;92762.13;5110850;28;20186;-71
2022/12/07 00:45:55;;;;;;;65.17;36.50;;;;;;;4.58;100.00;92763.09;5110212;28;20231;-70
2022/12/07 00:48:21;;;;;;;63.63;35.97;;;;;;;4.54;100.00;92757.66;5110105;28;20168;-70
2022/12/07 00:50:47;;;;;;;68.40;37.83;;;;;;;4.60;100.00;92754.13;5110011;28;20246;-70
2022/12/07 00:53:12;;;;;;;60.03;35.50;;;;;;;4.53;100.00;92744.94;5110522;28;20184;-70
2022/12/07 00:55:38;;;;;;;67.53;36.77;;;;;;;4.14;100.00;92754.47;5110456;28;20310;-71
2022/12/07 00:58:03;;;;;;;78.93;44.80;;;;;;;4.27;100.00;92761.91;5110699;28;20853;-70
2022/12/07 01:00:29;;;;;;;69.03;40.00;;;;;;;4.45;100.00;92768.63;5109347;28;20176;-70
2022/12/07 01:02:54;;;;;;;71.17;39.87;;;;;;;4.49;100.00;92767.91;5110346;28;20192;-70
2022/12/07 01:05:20;;;;;;;66.03;36.13;;;;;;;4.38;100.00;92766.22;5110193;28;20179;-71
2022/12/07 01:07:46;;;;;;;62.73;37.67;;;;;;;4.49;100.00;92752.41;5110550;28;20199;-70
2022/12/07 01:10:13;;;;;;;68.43;36.93;;;;;;;4.47;100.00;92749.28;5110719;28;20210;-70
2022/12/07 01:12:39;;;;;;;52.57;34.30;;;;;;;4.55;100.00;92737.75;5110046;28;20256;-71
2022/12/07 01:15:05;;;;;;;61.23;34.90;;;;;;;4.56;100.00;92745.25;5109317;28;20199;-70
2022/12/07 01:17:31;;;;;;;62.83;35.97;;;;;;;4.60;100.00;92761.88;5108658;28;20220;-70
2022/12/07 01:19:56;;;;;;;61.43;33.20;;;;;;;4.63;100.00;92758.81;5108211;28;20184;-70
2022/12/07 01:22:21;;;;;;;56.03;32.83;;;;;;;4.58;100.00;92745.81;5109919;28;20208;-69
2022/12/07 01:24:47;;;;;;;54.07;33.30;;;;;;;4.60;100.00;92748.94;5110353;28;20179;-70
2022/12/07 01:27:13;;;;;;;54.60;33.50;;;;;;;4.47;100.00;92732.97;5109228;28;20227;-71
2022/12/07 01:29:39;;;;;;;55.50;33.37;;;;;;;4.45;100.00;92725.47;5110113;28;20219;-71
2022/12/07 01:32:04;;;;;;;56.93;33.30;;;;;;;4.46;100.00;92729.63;5110040;28;20220;-70
2022/12/07 01:34:29;;;;;;;60.33;33.70;;;;;;;4.55;100.00;92738.53;5104905;28;20210;-70
2022/12/07 01:36:55;;;;;;;57.27;31.70;;;;;;;4.63;100.00;92742.50;5100281;28;20239;-70
2022/12/07 01:39:21;;;;;;;64.93;34.70;;;;;;;4.43;100.00;92740.44;5092492;28;20172;-69
2022/12/07 01:41:47;;;;;;;59.77;33.33;;;;;;;4.50;100.00;92745.41;5109740;28;20812;-70
2022/12/07 01:44:12;;;;;;;57.63;34.53;;;;;;;4.38;100.00;92740.38;5110111;28;20176;-70
2022/12/07 01:46:38;;;;;;;59.07;34.63;;;;;;;4.40;100.00;92743.50;5107748;28;20326;-70
2022/12/07 01:49:08;;;;;;;55.43;32.93;;;;;;;4.31;100.00;92737.16;5102627;28;20212;-68
2022/12/07 01:51:34;;;;;;;55.23;32.03;;;;;;;4.40;100.00;92734.97;5100076;28;20220;-70
2022/12/07 01:54:01;;;;;;;55.83;31.87;;;;;;;4.43;100.00;92740.44;5109638;28;20255;-70
2022/12/07 01:56:28;;;;;;;59.90;33.63;;;;;;;4.44;100.00;92742.00;5109523;28;20216;-70
2022/12/07 01:58:57;;;;;;;45.60;30.27;;;;;;;4.55;100.00;92729.97;5109608;28;20184;-71
2022/12/07 02:01:22;;;;;;;50.13;33.67;;;;;;;4.51;100.00;92726.31;5109420;28;20216;-70
2022/12/07 02:03:48;;;;;;;47.57;30.80;;;;;;;4.51;100.00;92721.91;5085323;28;20266;-71
2022/12/07 02:06:19;;;;;;;54.13;32.90;;;;;;;4.43;100.00;92724.94;5104161;28;20232;-70
2022/12/07 02:08:46;;;;;;;45.87;30.97;;;;;;;4.41;100.00;92711.47;5104682;28;20173;-70
2022/12/07 02:11:12;;;;;;;43.67;30.53;;;;;;;4.40;100.00;92715.06;5109494;28;20223;-71
2022/12/07 02:13:40;;;;;;;51.57;31.37;;;;;;;4.44;100.00;92703.22;5109734;28;20207;-70
2022/12/07 02:16:11;;;;;;;52.30;32.03;;;;;;;4.19;100.00;92689.97;5103022;28;20223;-72
2022/12/07 02:19:15;;;;;;;52.37;31.70;;;;;;;4.15;100.00;92727.63;5108781;28;20175;-70
2022/12/07 02:21:58;;;;;;;54.97;36.30;;;;;;;3.98;100.00;92731.25;5105999;28;20291;-70
2022/12/07 02:24:38;;;;;;;58.50;35.87;;;;;;;4.18;100.00;92737.50;5109597;28;20207;-70
2022/12/07 02:27:22;;;;;;;46.70;30.40;;;;;;;4.36;100.00;92729.47;5104544;28;20243;-71
2022/12/07 02:30:09;;;;;;;55.33;33.30;;;;;;;4.39;100.00;92734.16;5091626;28;20215;-70
2022/12/07 02:32:59;;;;;;;54.47;32.63;;;;;;;4.46;100.00;92723.66;5109407;28;20234;-70
2022/12/07 02:35:38;;;;;;;56.17;31.40;;;;;;;4.39;100.00;92713.50;5113260;28;20266;-70
2022/12/07 02:38:18;;;;;;;63.17;35.13;;;;;;;4.49;100.00;92707.69;5113312;28;20172;-70
2022/12/07 02:40:51;;;;;;;57.00;32.00;;;;;;;4.24;100.00;92702.16;5113234;28;20220;-70
2022/12/07 02:43:33;;;;;;;61.10;35.60;;;;;;;4.17;100.00;92702.31;5095661;28;20192;-71
2022/12/07 02:46:04;;;;;;;51.27;33.30;;;;;;;4.25;100.00;92709.69;5112683;28;20226;-70
2022/12/07 02:48:31;;;;;;;54.40;32.77;;;;;;;4.22;100.00;92706.78;5113037;28;20191;-70
2022/12/07 02:50:57;;;;;;;53.00;32.37;;;;;;;3.98;100.00;92713.94;5112896;28;20250;-70
2022/12/07 02:53:34;;;;;;;53.07;31.73;;;;;;;4.00;100.00;92693.06;5113143;28;20236;-70
2022/12/07 02:56:23;;;;;;;48.43;30.43;;;;;;;4.16;100.00;92710.31;5107082;28;20223;-70
2022/12/07 02:59:15;;;;;;;47.80;29.37;;;;;;;4.20;100.00;92709.59;5112547;28;20184;-71
2022/12/07 03:01:46;;;;;;;52.67;31.63;;;;;;;4.16;100.00;92698.19;5104699;28;20228;-70
2022/12/07 03:04:22;;;;;;;43.90;31.27;;;;;;;4.17;100.00;92699.75;5113672;28;20886;-71
2022/12/07 03:06:54;;;;;;;41.70;27.57;;;;;;;3.97;100.00;92683.97;5100192;28;20239;-71
2022/12/07 03:09:23;;;;;;;45.53;27.57;;;;;;;4.07;100.00;92697.03;5113172;28;20214;-70
2022/12/07 03:11:52;;;;;;;45.13;26.90;;;;;;;3.84;100.00;92673.97;5112816;28;20275;-71
2022/12/07 03:14:33;;;;;;;45.03;30.37;;;;;;;3.89;100.00;92675.84;5112619;28;20213;-70
2022/12/07 03:17:20;;;;;;;51.20;28.23;;;;;;;3.98;100.00;92684.75;5106627;28;20224;-72
2022/12/07 03:19:49;;;;;;;41.03;28.13;;;;;;;4.01;100.00;92674.75;5109073;28;20199;-71
2022/12/07 03:22:17;;;;;;;58.20;38.30;;;;;;;3.84;100.00;92673.19;5112618;28;20224;-70
2022/12/07 03:24:49;;;;;;;52.23;34.50;;;;;;;3.91;100.00;92679.75;5109826;28;20218;-70
2022/12/07 03:27:25;;;;;;;33.80;25.10;;;;;;;3.89;100.00;92686.19;5112513;28;20232;-71
2022/12/07 03:30:19;;;;;;;34.70;24.83;;;;;;;4.02;100.00;92675.50;5111568;28;20219;-70
2022/12/07 03:32:55;;;;;;;38.60;23.70;;;;;;;3.99;100.00;92688.88;5108085;28;20215;-70
2022/12/07 03:35:33;;;;;;;34.97;25.20;;;;;;;3.50;100.00;92687.91;5112272;28;20236;-70
2022/12/07 03:38:06;;;;;;;48.50;25.77;;;;;;;3.76;100.00;92687.28;5112806;28;20188;-69
2022/12/07 03:40:44;;;;;;;34.63;24.40;;;;;;;3.67;100.00;92688.69;5094483;28;20192;-69
2022/12/07 03:43:10;;;;;;;34.97;22.20;;;;;;;3.67;100.00;92693.06;5099741;28;20188;-69
2022/12/07 03:45:42;;;;;;;29.27;21.33;;;;;;;3.88;100.00;92687.97;5099110;28;20228;-68
2022/12/07 03:48:40;;;;;;;26.53;19.83;;;;;;;3.90;100.00;92688.53;5101440;28;20247;-68
2022/12/07 03:51:17;;;;;;;26.90;22.30;;;;;;;3.89;100.00;92684.34;5111008;28;20249;-71
2022/12/07 03:53:54;;;;;;;29.63;24.73;;;;;;;3.85;100.00;92667.78;5110421;28;20180;-70
2022/12/07 03:56:21;;;;;;;25.27;19.83;;;;;;;3.76;100.00;92651.13;5102096;28;20254;-70
2022/12/07 03:58:47;;;;;;;21.13;16.43;;;;;;;3.81;100.00;92663.34;5110715;28;20180;-71
2022/12/07 04:01:12;;;;;;;25.20;19.50;;;;;;;3.93;100.00;92677.72;5111662;28;20231;-70
2022/12/07 04:03:38;;;;;;;27.13;18.37;;;;;;;3.88;100.00;92667.31;5109715;28;20187;-71
2022/12/07 04:06:04;;;;;;;18.77;16.80;;;;;;;3.63;100.00;92615.31;5111491;28;20231;-71
2022/12/07 04:08:29;;;;;;;24.27;18.47;;;;;;;3.90;100.00;92680.78;5111822;28;20204;-70
2022/12/07 04:10:54;;;;;;;20.87;16.77;;;;;;;3.82;100.00;92676.00;5111720;28;20287;-71
2022/12/07 04:13:20;;;;;;;19.90;17.20;;;;;;;3.77;100.00;92675.91;5111960;28;20180;-69
2022/12/07 04:15:45;;;;;;;20.57;18.47;;;;;;;3.81;100.00;92682.19;5111270;28;20287;-69
2022/12/07 04:18:10;;;;;;;19.10;15.67;;;;;;;3.92;100.00;92683.88;5111080;28;20195;-69
2022/12/07 04:20:36;;;;;;;18.67;15.13;;;;;;;3.72;100.00;92655.19;5111053;28;20220;-71
2022/12/07 04:23:01;;;;;;;18.47;16.20;;;;;;;3.85;100.00;92685.84;5107923;28;20207;-71
2022/12/07 04:25:27;;;;;;;20.30;17.80;;;;;;;3.99;100.00;92676.78;5111065;28;20192;-70
2022/12/07 04:27:53;;;;;;;21.00;17.23;;;;;;;3.93;100.00;92669.19;5111209;28;20220;-70
2022/12/07 04:30:18;;;;;;;21.93;17.87;;;;;;;3.89;100.00;92655.94;5111178;28;20280;-71
2022/12/07 04:32:43;;;;;;;19.70;15.57;;;;;;;3.98;100.00;92677.78;5108001;28;20243;-71
2022/12/07 04:35:09;;;;;;;23.23;18.20;;;;;;;3.97;100.00;92683.97;5102868;28;20173;-71
2022/12/07 04:37:34;;;;;;;28.23;19.37;;;;;;;3.81;100.00;92669.28;5106424;28;20265;-70
2022/12/07 04:40:00;;;;;;;31.23;20.53;;;;;;;3.85;100.00;92679.91;5110586;28;20180;-70
2022/12/07 04:42:25;;;;;;;39.90;24.80;;;;;;;3.82;100.00;92685.53;5111029;28;20230;-71
2022/12/07 04:44:50;;;;;;;49.03;26.70;;;;;;;3.69;100.00;92678.13;5111370;28;20180;-73
2022/12/07 04:47:16;;;;;;;42.57;25.87;;;;;;;3.68;100.00;92689.44;5109764;28;20238;-72
2022/12/07 04:49:41;;;;;;;39.13;24.33;;;;;;;3.62;100.00;92691.19;5111059;28;20196;-68
2022/12/07 04:52:07;;;;;;;52.37;30.73;;;;;;;3.85;100.00;92691.03;5108773;28;20239;-69
2022/12/07 04:54:32;;;;;;;56.33;32.70;;;;;;;3.70;100.00;92682.25;5108287;28;20197;-72
2022/12/07 04:56:58;;;;;;;57.80;30.17;;;;;;;3.61;100.00;92692.19;5101987;28;20243;-73
2022/12/07 04:59:23;;;;;;;51.40;29.67;;;;;;;3.48;100.00;92689.91;5111036;28;20207;-74
2022/12/07 05:01:48;;;;;;;47.23;27.30;;;;;;;3.46;100.00;92686.78;5107547;28;20216;-68
2022/12/07 05:04:15;;;;;;;36.43;23.50;;;;;;;3.49;100.00;92685.56;5110771;28;20176;-67
2022/12/07 05:06:41;;;;;;;30.97;21.83;;;;;;;3.53;100.00;92681.47;5108585;28;20208;-68
2022/12/07 05:09:06;;;;;;;32.23;21.13;;;;;;;3.48;100.00;92679.59;5110636;28;20190;-69
2022/12/07 05:11:37;;;;;;;31.83;21.40;;;;;;;3.29;100.00;92666.13;5109966;28;20223;-67
2022/12/07 05:14:09;;;;;;;38.70;24.40;;;;;;;3.29;100.00;92684.19;5109970;28;20191;-69
2022/12/07 05:16:34;;;;;;;32.30;21.70;;;;;;;3.39;100.00;92677.63;5106056;28;20223;-68
2022/12/07 05:19:00;;;;;;;31.27;20.93;;;;;;;3.17;100.00;92700.75;5109128;28;20223;-69
2022/12/07 05:21:25;;;;;;;44.97;28.80;;;;;;;3.10;100.00;92700.09;5109568;28;20245;-67
2022/12/07 05:23:51;;;;;;;35.57;25.40;;;;;;;3.25;100.00;92697.78;5110261;28;20176;-67
2022/12/07 05:26:16;;;;;;;37.07;27.00;;;;;;;3.55;100.00;92695.69;5107562;28;20224;-68
2022/12/07 05:28:41;;;;;;;42.03;25.10;;;;;;;3.74;100.00;92697.03;5107036;28;20212;-69
2022/12/07 05:31:08;;;;;;;37.43;25.77;;;;;;;3.83;100.00;92679.38;5102645;28;20228;-68
2022/12/07 05:33:33;;;;;;;40.80;26.70;;;;;;;3.78;100.00;92674.91;5107323;28;20205;-70
2022/12/07 05:36:05;;;;;;;42.23;25.87;;;;;;;4.01;100.00;92690.22;5109772;28;20233;-73
2022/12/07 05:38:30;;;;;;;55.70;32.90;;;;;;;4.03;100.00;92683.00;5108767;28;20176;-72
2022/12/07 05:41:01;;;;;;;49.00;28.97;;;;;;;3.82;100.00;92675.22;5109110;28;20226;-72
2022/12/07 05:43:26;;;;;;;43.27;27.33;;;;;;;3.81;100.00;92664.13;5108140;28;20188;-73
2022/12/07 05:45:51;;;;;;;38.13;24.60;;;;;;;3.94;100.00;92660.44;5108128;28;20246;-72
2022/12/07 05:48:17;;;;;;;34.33;24.83;;;;;;;3.82;100.00;92642.44;5108070;28;20184;-72
2022/12/07 05:50:42;;;;;;;37.07;25.13;;;;;;;3.84;100.00;92661.06;5108387;28;20216;-72
2022/12/07 05:53:07;;;;;;;39.57;24.53;;;;;;;3.77;100.00;92663.00;5109527;28;20188;-72
2022/12/07 05:55:33;;;;;;;40.93;28.03;;;;;;;3.85;100.00;92667.78;5108390;28;20172;-72
2022/12/07 06:00:42;;;;;;;38.57;27.13;;;;;;;3.74;100.00;92658.31;5108625;28;20266;-72
2022/12/07 06:03:07;;;;;;;35.23;26.27;;;;;;;3.73;100.00;92659.34;5109581;28;20180;-73
2022/12/07 06:05:33;;;;;;;41.27;24.37;;;;;;;3.84;100.00;92671.41;5108051;28;20188;-73
2022/12/07 06:07:59;;;;;;;36.47;22.83;;;;;;;3.88;100.00;92669.88;5109851;28;20183;-73
2022/12/07 06:10:24;;;;;;;35.50;24.67;;;;;;;3.92;100.00;92670.97;5108809;28;20222;-71
2022/12/07 06:12:49;;;;;;;46.93;28.13;;;;;;;3.58;100.00;92684.91;5109820;28;20180;-73
2022/12/07 06:15:15;;;;;;;38.00;25.03;;;;;;;3.77;100.00;92682.88;5107387;28;20192;-70
2022/12/07 06:17:40;;;;;;;37.10;25.00;;;;;;;3.81;100.00;92684.78;5101506;28;20192;-69
2022/12/07 06:20:07;;;;;;;35.40;25.40;;;;;;;4.00;100.00;92678.31;5108538;28;20187;-70
2022/12/07 06:22:32;;;;;;;42.00;26.20;;;;;;;4.12;100.00;92691.94;5107130;28;20227;-69
2022/12/07 06:24:57;;;;;;;39.57;26.70;;;;;;;4.26;100.00;92688.00;5106141;28;20195;-69
2022/12/07 06:27:23;;;;;;;39.43;24.23;;;;;;;4.18;100.00;92696.16;5106123;28;20231;-69
2022/12/07 06:29:48;;;;;;;40.60;25.30;;;;;;;4.10;100.00;92688.81;5102131;28;20212;-69
2022/12/07 06:32:13;;;;;;;38.17;26.73;;;;;;;4.17;100.00;92694.56;5106509;28;20228;-69
2022/12/07 06:34:39;;;;;;;53.20;30.67;;;;;;;4.39;100.00;92700.56;5107451;28;20198;-69
2022/12/07 06:37:04;;;;;;;48.33;26.53;;;;;;;4.45;100.00;92693.69;5078900;28;20250;-69
2022/12/07 06:39:30;;;;;;;44.67;26.60;;;;;;;4.50;100.00;92689.34;5080060;28;20199;-69
2022/12/07 06:41:56;;;;;;;51.83;28.73;;;;;;;4.73;100.00;92691.69;5107833;28;20269;-69
2022/12/07 06:44:23;;;;;;;54.73;27.37;;;;;;;4.73;100.00;92693.53;5108685;28;20196;-69
2022/12/07 06:46:49;;;;;;;45.73;25.73;;;;;;;4.55;100.00;92691.22;5105452;28;20812;-69
2022/12/07 06:49:15;;;;;;;48.30;27.30;;;;;;;4.80;100.00;92702.66;5101942;28;20227;-71
2022/12/07 06:51:43;;;;;;;46.63;26.50;;;;;;;4.86;100.00;92699.09;5099055;28;20212;-70
2022/12/07 06:54:12;;;;;;;43.93;26.30;;;;;;;4.70;100.00;92706.94;5105205;28;20214;-69
2022/12/07 06:56:38;;;;;;;52.03;28.17;;;;;;;4.82;100.00;92708.34;5090010;28;20239;-69
2022/12/07 06:59:06;;;;;;;53.17;28.87;;;;;;;4.50;100.00;92710.03;5108211;28;20188;-69
2022/12/07 07:01:31;;;;;;;58.17;33.73;;;;;;;4.65;100.00;92694.69;5106909;28;20271;-69
2022/12/07 07:03:57;;;;;;;55.07;30.53;;;;;;;4.78;100.00;92712.44;5105854;28;20192;-68
2022/12/07 07:06:22;;;;;;;61.27;32.77;;;;;;;4.90;100.00;92707.16;5107148;28;20216;-69
2022/12/07 07:08:48;;;;;;;58.23;31.17;;;;;;;4.71;100.00;92711.84;5107735;28;20196;-69
2022/12/07 07:11:13;;;;;;;68.20;33.57;;;;;;;4.85;100.00;92710.47;5098518;28;20235;-68
2022/12/07 07:13:38;;;;;;;63.40;32.67;;;;;;;4.58;100.00;92707.03;5102254;28;20216;-69
2022/12/07 07:16:05;;;;;;;60.60;31.57;;;;;;;4.78;100.00;92699.50;5107274;28;20284;-70
2022/12/07 07:18:30;;;;;;;55.73;30.30;;;;;;;4.91;100.00;92691.41;5093118;28;20195;-70
2022/12/07 07:20:56;;;;;;;68.00;33.10;;;;;;;4.85;100.00;92713.06;5110677;28;20224;-69
2022/12/07 07:23:22;;;;;;;60.93;30.83;;;;;;;4.68;100.00;92708.97;5109581;28;20209;-70
2022/12/07 07:25:48;;;;;;;58.93;30.30;;;;;;;5.07;100.00;92707.88;5109109;28;20257;-70
2022/12/07 07:28:13;;;;;;;46.60;28.97;;;;;;;4.71;100.00;92717.03;5108797;28;20224;-70
2022/12/07 07:30:39;;;;;;;48.23;28.70;;;;;;;4.77;100.00;92707.50;5107726;28;20262;-70
2022/12/07 07:33:04;;;;;;;47.37;28.07;;;;;;;5.04;100.00;92720.50;5110643;28;20184;-70
2022/12/07 07:35:32;;;;;;;49.50;27.60;;;;;;;4.58;100.00;92726.91;5107880;28;20222;-70
2022/12/07 07:37:57;;;;;;;57.63;28.80;;;;;;;4.90;100.00;92728.63;5109528;28;20226;-73
2022/12/07 07:40:24;;;;;;;44.23;26.77;;;;;;;5.03;100.00;92729.28;5107528;28;20192;-73
2022/12/07 07:42:50;;;;;;;47.13;27.30;;;;;;;4.87;100.00;92726.50;5108252;28;20172;-72
2022/12/07 07:45:17;;;;;;;47.83;26.80;;;;;;;5.11;100.00;92715.91;5110818;28;20200;-70
2022/12/07 07:47:42;;;;;;;56.37;27.13;;;;;;;4.79;100.00;92714.00;5092496;28;20244;-68
2022/12/07 07:50:08;;;;;;;61.23;31.53;;;;;;;4.98;100.00;92712.69;5092642;28;20243;-73
2022/12/07 07:52:33;;;;;;;49.10;30.13;;;;;;;5.52;100.00;92717.91;5109991;28;20230;-71
2022/12/07 07:54:59;;;;;;;54.57;28.80;;;;;;;5.66;100.00;92703.53;5109886;28;20179;-72
2022/12/07 07:57:24;;;;;;;54.70;31.57;;;;;;;5.79;100.00;92718.66;5110063;28;20231;-72
2022/12/07 07:59:49;;;;;;;41.87;26.47;;;;;;;5.68;100.00;92722.19;5088994;28;20222;-72
2022/12/07 08:02:19;;;;;;;40.57;27.23;;;;;;;5.82;100.00;92707.84;5107570;28;20231;-72
2022/12/07 08:04:45;;;;;;;44.87;26.80;;;;;;;5.50;100.00;92692.25;5111144;28;20206;-72
2022/12/07 08:07:11;;;;;;;46.77;26.67;;;;;;;5.70;100.00;92718.31;5110426;28;20224;-72
2022/12/07 08:09:37;;;;;;;49.33;26.93;;;;;;;5.04;100.00;92720.50;5110103;28;20219;-71
2022/12/07 08:12:02;;;;;;;42.43;26.27;;;;;;;5.27;100.00;92705.50;5109666;28;20275;-72
2022/12/07 08:14:28;;;;;;;51.73;26.83;;;;;;;5.44;100.00;92710.56;5110659;28;20206;-73
2022/12/07 08:16:54;;;;;;;51.63;28.00;;;;;;;5.19;100.00;92712.91;5090932;28;20216;-71
2022/12/07 08:19:20;;;;;;;58.23;29.57;;;;;;;4.93;100.00;92720.38;5092886;28;20188;-72
2022/12/07 08:21:45;;;;;;;58.13;30.57;;;;;;;5.35;100.00;92706.84;5108584;28;20215;-72
2022/12/07 08:24:10;;;;;;;50.20;29.47;;;;;;;5.63;100.00;92715.16;5110110;28;20191;-71
2022/12/07 08:26:36;;;;;;;54.77;29.73;;;;;;;5.69;100.00;92728.94;5109645;28;20231;-71
2022/12/07 08:29:01;;;;;;;47.30;28.87;;;;;;;5.63;100.00;92716.97;5110456;28;20687;-72
2022/12/07 08:31:27;;;;;;;50.93;30.50;;;;;;;5.70;100.00;92720.13;5090198;28;20239;-72
2022/12/07 08:33:53;;;;;;;48.73;28.13;;;;;;;5.57;100.00;92715.34;5110321;28;20894;-71
2022/12/07 08:36:19;;;;;;;57.70;32.83;;;;;;;5.71;100.00;92690.63;5109664;28;20227;-72
2022/12/07 08:38:45;;;;;;;55.30;29.80;;;;;;;5.83;100.00;92706.81;5111156;28;20189;-72
2022/12/07 08:41:11;;;;;;;47.00;28.10;;;;;;;5.89;100.00;92706.59;5105889;28;20235;-71
2022/12/07 08:43:37;;;;;;;49.93;28.80;;;;;;;6.05;100.00;92705.69;5090055;28;20717;-71
2022/12/07 08:46:14;;;;;;;57.77;30.83;;;;;;;5.88;100.00;92709.44;5106866;28;20220;-71
2022/12/07 08:48:56;;;;;;;51.23;28.43;;;;;;;5.94;100.00;92709.25;5104381;28;20194;-71
2022/12/07 08:51:22;;;;;;;57.97;29.83;;;;;;;6.03;100.00;92699.97;5102625;28;20231;-72
2022/12/07 08:53:49;;;;;;;53.80;32.03;;;;;;;6.03;100.00;92697.38;5110380;28;20240;-71
2022/12/07 08:56:15;;;;;;;56.83;32.63;;;;;;;6.35;100.00;92702.53;5099292;28;20212;-73
2022/12/07 08:58:41;;;;;;;51.80;31.80;;;;;;;6.47;100.00;92696.09;5110714;28;20187;-72
2022/12/07 09:01:06;;;;;;;56.07;31.60;;;;;;;6.45;100.00;92693.00;5108631;28;20226;-71
2022/12/07 09:03:32;;;;;;;57.40;32.23;;;;;;;6.45;100.00;92687.00;5110424;28;20183;-70
2022/12/07 09:05:59;;;;;;;56.83;32.77;;;;;;;6.35;100.00;92694.75;5109356;28;20282;-71
2022/12/07 09:08:30;;;;;;;56.33;31.90;;;;;;;6.42;100.00;92693.50;5110306;28;20184;-72
2022/12/07 09:10:56;;;;;;;57.53;30.47;;;;;;;6.61;100.00;92691.25;5107537;28;20226;-71
2022/12/07 09:13:22;;;;;;;51.43;30.13;;;;;;;6.47;100.00;92684.97;5110614;28;20189;-72
2022/12/07 09:15:47;;;;;;;58.93;32.30;;;;;;;6.62;100.00;92686.81;5109384;28;20269;-72
2022/12/07 09:18:13;;;;;;;59.87;34.60;;;;;;;6.63;100.00;92675.44;5089917;28;20176;-71
2022/12/07 09:20:38;;;;;;;62.07;34.33;;;;;;;6.46;100.00;92683.38;5110194;28;20224;-71
2022/12/07 09:23:06;;;;;;;54.20;31.57;;;;;;;6.59;100.00;92688.13;5109616;28;20247;-72
2022/12/07 09:25:31;;;;;;;48.93;29.77;;;;;;;6.75;100.00;92674.19;5110178;28;20200;-72
2022/12/07 09:27:58;;;;;;;51.87;30.30;;;;;;;7.05;100.00;92663.91;5109669;28;20231;-72
2022/12/07 09:30:24;;;;;;;50.73;28.07;;;;;;;7.10;100.00;92661.34;5109519;28;20215;-72
2022/12/07 09:32:49;;;;;;;55.37;31.43;;;;;;;7.27;100.00;92677.47;5108240;28;20211;-72
2022/12/07 09:35:14;;;;;;;50.10;29.47;;;;;;;7.36;100.00;92672.56;5109728;28;20302;-72
2022/12/07 09:37:40;;;;;;;51.70;29.83;;;;;;;7.36;100.00;92657.75;5109220;28;20741;-71
2022/12/07 09:40:06;;;;;;;53.57;31.40;;;;;;;7.50;99.90;92658.81;5091923;28;20187;-71
2022/12/07 09:42:35;;;;;;;47.20;29.70;;;;;;;7.38;100.00;92650.50;5109671;28;20237;-72
2022/12/07 09:45:04;;;;;;;53.27;30.93;;;;;;;7.34;99.97;92640.88;5109081;28;20243;-72
2022/12/07 09:47:30;;;;;;;46.20;30.63;;;;;;;7.35;100.00;92635.44;5108484;28;20215;-76
2022/12/07 09:50:04;;;;;;;50.30;30.10;;;;;;;6.89;100.00;92649.34;5109799;28;20306;-70
2022/12/07 09:52:30;;;;;;;47.53;30.50;;;;;;;7.56;100.00;92650.00;5107972;28;20224;-68
2022/12/07 09:54:55;;;;;;;44.77;30.67;;;;;;;7.69;99.85;92651.28;5106306;28;20176;-69
2022/12/07 09:57:34;;;;;;;52.10;30.47;;;;;;;7.40;100.00;92627.66;5108359;28;20219;-68
2022/12/07 10:00:03;;;;;;;46.57;30.40;;;;;;;7.71;100.00;92646.63;5108084;28;20175;-68
2022/12/07 10:02:41;;;;;;;57.07;32.83;;;;;;;7.78;98.47;92624.53;5108565;28;20230;-67
2022/12/07 10:05:24;;;;;;;55.37;32.10;;;;;;;7.22;100.00;92645.53;5109295;28;20183;-68
2022/12/07 10:07:49;;;;;;;57.80;33.07;;;;;;;7.50;100.00;92648.41;5109263;28;20212;-69
2022/12/07 10:10:21;;;;;;;52.10;31.83;;;;;;;7.68;100.00;92634.16;5108561;28;20211;-72
2022/12/07 10:12:57;;;;;;;51.53;31.00;;;;;;;7.24;100.00;92627.88;5109897;28;20180;-69
2022/12/07 10:15:23;;;;;;;58.90;31.03;;;;;;;7.37;100.00;92635.97;5108488;28;20184;-68
2022/12/07 10:17:51;;;;;;;46.30;28.10;;;;;;;7.66;100.00;92631.03;5109277;28;20192;-70
2022/12/07 10:20:26;;;;;;;50.00;30.13;;;;;;;7.15;100.00;92627.59;5107036;28;20216;-69
2022/12/07 10:23:13;;;;;;;53.90;32.20;;;;;;;7.33;100.00;92637.50;5108034;28;20915;-68
2022/12/07 10:25:40;;;;;;;49.30;29.27;;;;;;;7.52;100.00;92625.56;5104260;28;20223;-67
2022/12/07 10:28:08;;;;;;;53.97;30.60;;;;;;;7.89;99.81;92628.69;5105712;28;20219;-71
2022/12/07 10:31:01;;;;;;;52.37;30.20;;;;;;;7.83;100.00;92629.72;5108714;28;20207;-67
2022/12/07 10:33:31;;;;;;;58.17;34.13;;;;;;;8.11;99.56;92610.19;5100039;28;20191;-70
2022/12/07 10:35:57;;;;;;;54.93;32.07;;;;;;;8.51;97.61;92607.53;5104269;28;20220;-66
2022/12/07 10:38:26;;;;;;;49.83;32.90;;;;;;;8.69;96.00;92609.53;5108955;28;20180;-67
2022/12/07 10:41:06;;;;;;;65.37;40.30;;;;;;;8.48;99.97;92607.28;5104828;28;20322;-68
2022/12/07 10:43:32;;;;;;;54.33;32.73;;;;;;;8.63;98.78;92609.81;5106968;28;20186;-68
2022/12/07 10:46:21;;;;;;;42.20;29.83;;;;;;;8.95;94.94;92602.41;5107301;28;20251;-69
2022/12/07 10:48:52;;;;;;;24.27;20.13;;;;;;;8.49;93.51;92609.63;5101623;28;20189;-68
2022/12/07 10:51:55;;;;;;;33.83;23.87;;;;;;;8.91;91.13;92590.97;5084066;28;20231;-68
2022/12/07 10:54:48;;;;;;;46.33;30.50;;;;;;;8.49;95.60;92573.19;5110212;28;20221;-68
2022/12/07 10:57:23;;;;;;;51.63;30.53;;;;;;;8.27;99.54;92590.94;5101565;28;20258;-69
2022/12/07 11:00:19;;;;;;;42.87;28.70;;;;;;;8.54;97.13;92575.78;5103013;28;20210;-70
2022/12/07 11:03:03;;;;;;;56.47;30.77;;;;;;;8.14;99.00;92576.66;5110171;28;20208;-68
2022/12/07 11:06:06;;;;;;;50.67;31.10;;;;;;;8.38;98.79;92582.09;5083677;28;20197;-69
2022/12/07 11:09:00;;;;;;;42.93;28.87;;;;;;;8.45;98.20;92587.75;5093936;28;20192;-68
2022/12/07 11:12:04;;;;;;;63.53;35.80;;;;;;;8.32;99.10;92572.75;5103820;28;20285;-68
2022/12/07 11:14:44;;;;;;;47.57;29.90;;;;;;;8.53;97.48;92574.22;5095233;28;20181;-68
2022/12/07 11:17:30;;;;;;;34.10;24.47;;;;;;;8.59;95.71;92588.00;5105014;28;20235;-68
2022/12/07 11:20:34;;;;;;;32.33;23.83;;;;;;;8.57;95.71;92579.66;5105882;28;20275;-67
2022/12/07 11:23:32;;;;;;;39.57;27.17;;;;;;;8.71;94.65;92572.84;5090097;28;20216;-71
2022/12/07 11:26:05;;;;;;;33.57;24.10;;;;;;;8.53;95.59;92568.25;5110828;28;20231;-67
2022/12/07 11:28:40;;;;;;;44.93;26.80;;;;;;;8.73;95.23;92561.09;5092382;28;20278;-67
2022/12/07 11:31:23;;;;;;;34.17;24.60;;;;;;;8.90;94.31;92561.53;5109367;28;20227;-68